createdAt,value
2022-11-18T00:00:55.615Z,0
2022-11-18T00:02:11.919Z,0
2022-11-18T00:03:28.202Z,0
2022-11-18T00:04:44.513Z,0
2022-11-18T00:05:59.823Z,0
2022-11-18T00:07:16.113Z,0
2022-11-18T00:08:32.406Z,0
2022-11-18T00:09:48.690Z,0
2022-11-18T00:11:05.004Z,0
2022-11-18T00:12:21.284Z,0
2022-11-18T00:13:37.583Z,0
2022-11-18T00:14:53.886Z,0
2022-11-18T00:16:10.180Z,0
2022-11-18T00:17:26.464Z,0
2022-11-18T00:18:42.766Z,0
2022-11-18T00:19:59.051Z,0
2022-11-18T00:21:15.354Z,0
2022-11-18T00:22:30.669Z,0
2022-11-18T00:23:46.956Z,0
2022-11-18T00:25:03.252Z,0
2022-11-18T00:26:19.544Z,0
2022-11-18T00:27:35.844Z,0
2022-11-18T00:28:52.127Z,0
2022-11-18T00:30:08.438Z,0
2022-11-18T00:32:41.030Z,0
2022-11-18T00:33:57.317Z,0
2022-11-18T00:35:13.606Z,0
2022-11-18T00:36:29.899Z,0
2022-11-18T00:37:46.200Z,0
2022-11-18T00:39:02.505Z,0
2022-11-18T00:40:17.818Z,0
2022-11-18T00:41:34.107Z,0
2022-11-18T00:42:50.410Z,0
2022-11-18T00:44:06.702Z,0
2022-11-18T00:45:22.987Z,0
2022-11-18T00:46:39.287Z,0
2022-11-18T00:47:55.576Z,0
2022-11-18T00:49:11.875Z,0
2022-11-18T00:50:28.167Z,0
2022-11-18T00:51:44.461Z,0
2022-11-18T00:53:00.761Z,0
2022-11-18T00:54:17.048Z,0
2022-11-18T00:55:33.341Z,0
2022-11-18T00:56:48.660Z,0
2022-11-18T00:58:04.953Z,0
2022-11-18T00:59:21.258Z,0
2022-11-18T01:00:37.548Z,0
2022-11-18T01:01:53.832Z,0
2022-11-18T01:03:10.146Z,0
2022-11-18T01:05:42.725Z,0
2022-11-18T01:06:59.028Z,0
2022-11-18T01:08:15.316Z,0
2022-11-18T01:09:31.611Z,0
2022-11-18T01:10:47.894Z,0
2022-11-18T01:12:04.206Z,0
2022-11-18T01:13:19.501Z,0
2022-11-18T01:14:35.810Z,0
2022-11-18T01:15:52.094Z,0
2022-11-18T01:17:08.399Z,0
2022-11-18T01:18:24.695Z,0
2022-11-18T01:19:40.978Z,0
2022-11-18T01:20:57.277Z,0
2022-11-18T01:22:13.569Z,0
2022-11-18T01:23:29.860Z,0
2022-11-18T01:26:02.446Z,0
2022-11-18T01:27:18.749Z,0
2022-11-18T01:28:35.056Z,0
2022-11-18T01:29:50.356Z,0
2022-11-18T01:31:06.647Z,0
2022-11-18T01:32:22.953Z,0
2022-11-18T01:33:39.249Z,0
2022-11-18T01:34:55.542Z,0
2022-11-18T01:36:11.831Z,0
2022-11-18T01:37:28.116Z,0
2022-11-18T01:38:44.420Z,0
2022-11-18T01:40:00.713Z,0
2022-11-18T01:41:17.008Z,0
2022-11-18T01:42:33.313Z,0
2022-11-18T01:43:49.594Z,0
2022-11-18T01:45:05.900Z,0
2022-11-18T01:46:21.205Z,0
2022-11-18T01:47:37.502Z,0
2022-11-18T01:48:53.801Z,0
2022-11-18T01:50:10.099Z,0
2022-11-18T01:51:26.384Z,0
2022-11-18T01:52:42.680Z,0
2022-11-18T01:53:58.981Z,0
2022-11-18T01:55:15.265Z,0
2022-11-18T01:56:31.555Z,0
2022-11-18T01:57:47.850Z,0
2022-11-18T01:59:04.164Z,0
2022-11-18T02:00:20.444Z,0
2022-11-18T02:01:36.736Z,0
2022-11-18T02:02:52.059Z,0
2022-11-18T02:04:08.357Z,0
2022-11-18T02:05:24.643Z,0
2022-11-18T02:06:40.933Z,0
2022-11-18T02:07:57.228Z,0
2022-11-18T02:09:13.533Z,0
2022-11-18T02:10:29.816Z,0
2022-11-18T02:11:46.119Z,0
2022-11-18T02:13:02.407Z,0
2022-11-18T02:14:18.710Z,0
2022-11-18T02:15:35.004Z,0
2022-11-18T02:16:51.291Z,0
2022-11-18T02:18:07.602Z,0
2022-11-18T02:19:22.904Z,0
2022-11-18T02:20:39.191Z,0
2022-11-18T02:21:55.491Z,0
2022-11-18T02:23:11.790Z,0
2022-11-18T02:24:28.070Z,0
2022-11-18T02:25:44.384Z,0
2022-11-18T02:27:00.660Z,0
2022-11-18T02:28:16.971Z,0
2022-11-18T02:29:33.253Z,0
2022-11-18T02:30:49.558Z,0
2022-11-18T02:32:05.842Z,0
2022-11-18T02:34:38.438Z,0
2022-11-18T02:35:53.743Z,0
2022-11-18T02:37:10.044Z,0
2022-11-18T02:38:26.332Z,0
2022-11-18T02:39:42.624Z,0
2022-11-18T02:40:58.931Z,0
2022-11-18T02:42:15.216Z,0
2022-11-18T02:43:31.514Z,0
2022-11-18T02:44:47.817Z,0
2022-11-18T02:46:04.100Z,0
2022-11-18T02:47:20.395Z,0
2022-11-18T02:49:52.983Z,0
2022-11-18T02:51:09.293Z,0
2022-11-18T02:52:24.587Z,0
2022-11-18T02:53:40.889Z,0
2022-11-18T02:54:57.179Z,0
2022-11-18T02:56:13.485Z,0
2022-11-18T02:57:29.780Z,0
2022-11-18T02:58:46.074Z,0
2022-11-18T03:00:02.362Z,0
2022-11-18T03:01:18.654Z,0
2022-11-18T03:02:34.948Z,0
2022-11-18T03:03:51.246Z,0
2022-11-18T03:05:07.551Z,0
2022-11-18T03:06:23.839Z,0
2022-11-18T03:07:40.144Z,0
2022-11-18T03:08:55.436Z,0
2022-11-18T03:10:11.733Z,0
2022-11-18T03:11:28.042Z,0
2022-11-18T03:12:44.330Z,0
2022-11-18T03:14:00.630Z,0
2022-11-18T03:15:16.912Z,0
2022-11-18T03:16:33.220Z,0
2022-11-18T03:17:49.508Z,0
2022-11-18T03:19:05.799Z,0
2022-11-18T03:20:22.088Z,0
2022-11-18T03:21:38.397Z,0
2022-11-18T03:22:54.691Z,0
2022-11-18T03:24:10.972Z,0
2022-11-18T03:25:26.285Z,0
2022-11-18T03:26:42.593Z,0
2022-11-18T03:27:58.885Z,0
2022-11-18T03:30:31.468Z,0
2022-11-18T03:31:47.766Z,0
2022-11-18T03:33:04.055Z,0
2022-11-18T03:34:20.355Z,0
2022-11-18T03:35:36.644Z,0
2022-11-18T03:36:52.936Z,0
2022-11-18T03:38:09.231Z,0
2022-11-18T03:39:25.529Z,0
2022-11-18T03:40:41.831Z,0
2022-11-18T03:41:57.149Z,0
2022-11-18T03:43:13.425Z,0
2022-11-18T03:44:29.735Z,0
2022-11-18T03:45:46.030Z,0
2022-11-18T03:47:02.325Z,0
2022-11-18T03:48:18.607Z,0
2022-11-18T03:49:34.906Z,0
2022-11-18T03:50:51.200Z,0
2022-11-18T03:52:07.493Z,0
2022-11-18T03:53:23.783Z,0
2022-11-18T03:54:40.090Z,0
2022-11-18T03:55:56.380Z,0
2022-11-18T03:57:12.669Z,0
2022-11-18T03:58:27.984Z,0
2022-11-18T03:59:44.287Z,0
2022-11-18T04:01:00.569Z,0
2022-11-18T04:02:16.875Z,0
2022-11-18T04:03:33.171Z,0
2022-11-18T04:04:49.457Z,0
2022-11-18T04:06:05.751Z,0
2022-11-18T04:07:22.047Z,0
2022-11-18T04:08:38.346Z,0
2022-11-18T04:09:54.640Z,0
2022-11-18T04:11:10.929Z,0
2022-11-18T04:13:43.530Z,0
2022-11-18T04:14:58.832Z,0
2022-11-18T04:16:15.123Z,0
2022-11-18T04:17:31.431Z,0
2022-11-18T04:18:47.729Z,0
2022-11-18T04:20:04.005Z,0
2022-11-18T04:21:20.318Z,0
2022-11-18T04:22:36.615Z,0
2022-11-18T04:23:52.897Z,0
2022-11-18T04:26:25.489Z,0
2022-11-18T04:27:41.779Z,0
2022-11-18T04:28:58.072Z,0
2022-11-18T04:30:14.363Z,0
2022-11-18T04:31:29.676Z,0
2022-11-18T04:32:45.969Z,0
2022-11-18T04:34:02.263Z,0
2022-11-18T04:36:34.873Z,0
2022-11-18T04:37:50.177Z,0
2022-11-18T04:39:05.480Z,0
2022-11-18T04:40:21.786Z,0
2022-11-18T04:41:38.090Z,0
2022-11-18T04:42:54.376Z,0
2022-11-18T04:44:10.669Z,0
2022-11-18T04:45:26.965Z,0
2022-11-18T04:46:43.251Z,0
2022-11-18T04:47:59.554Z,0
2022-11-18T04:49:15.848Z,0
2022-11-18T04:51:48.426Z,0
2022-11-18T04:53:04.741Z,0
2022-11-18T04:54:21.022Z,0
2022-11-18T04:55:36.348Z,0
2022-11-18T04:56:52.642Z,0
2022-11-18T04:59:25.228Z,0
2022-11-18T05:00:41.514Z,0
2022-11-18T05:01:56.845Z,0
2022-11-18T05:03:12.146Z,0
2022-11-18T05:04:28.433Z,0
2022-11-18T05:07:01.038Z,0
2022-11-18T05:08:17.322Z,0
2022-11-18T05:09:33.631Z,0
2022-11-18T05:10:49.921Z,0
2022-11-18T05:12:06.217Z,0
2022-11-18T05:13:22.514Z,0
2022-11-18T05:14:38.798Z,0
2022-11-18T05:15:55.083Z,0
2022-11-18T05:18:27.690Z,0
2022-11-18T05:19:42.988Z,0
2022-11-18T05:20:59.296Z,0
2022-11-18T05:22:15.578Z,0
2022-11-18T05:23:31.871Z,0
2022-11-18T05:24:48.175Z,0
2022-11-18T05:26:04.459Z,0
2022-11-18T05:27:20.767Z,0
2022-11-18T05:28:37.063Z,0
2022-11-18T05:29:53.348Z,0
2022-11-18T05:31:09.646Z,0
2022-11-18T05:32:25.950Z,0
2022-11-18T05:33:42.377Z,0
2022-11-18T05:34:57.693Z,0
2022-11-18T05:36:13.993Z,0
2022-11-18T05:37:30.276Z,0
2022-11-18T05:38:46.582Z,0
2022-11-18T05:40:02.872Z,0
2022-11-18T05:41:19.170Z,0
2022-11-18T05:42:35.450Z,0
2022-11-18T05:43:51.758Z,0
2022-11-18T05:45:08.039Z,0
2022-11-18T05:46:24.338Z,0
2022-11-18T05:47:39.647Z,0
2022-11-18T05:48:54.971Z,0
2022-11-18T05:50:11.269Z,0
2022-11-18T05:51:27.550Z,0
2022-11-18T05:52:43.860Z,0
2022-11-18T05:55:16.449Z,0
2022-11-18T05:56:32.741Z,0
2022-11-18T05:57:49.037Z,0
2022-11-18T06:00:21.631Z,0
2022-11-18T06:01:37.922Z,0
2022-11-18T06:02:54.163Z,1
2022-11-18T06:04:10.446Z,0
2022-11-18T06:05:25.728Z,1
2022-11-18T06:06:40.981Z,1
2022-11-18T06:07:57.278Z,0
2022-11-18T06:09:13.528Z,2
2022-11-18T06:10:29.777Z,1
2022-11-18T06:11:46.014Z,1
2022-11-18T06:13:02.244Z,2
2022-11-18T06:14:18.513Z,4
2022-11-18T06:16:50.976Z,3
2022-11-18T06:18:07.218Z,4
2022-11-18T06:19:23.474Z,9
2022-11-18T06:20:39.700Z,7
2022-11-18T06:23:12.183Z,9
2022-11-18T06:24:27.451Z,10
2022-11-18T06:25:42.717Z,16
2022-11-18T06:26:58.938Z,22
2022-11-18T06:28:15.179Z,23
2022-11-18T06:29:31.427Z,23
2022-11-18T06:30:47.676Z,23
2022-11-18T06:32:03.913Z,26
2022-11-18T06:33:20.157Z,28
2022-11-18T06:34:36.388Z,28
2022-11-18T06:35:52.629Z,28
2022-11-18T06:38:25.000Z,34
2022-11-18T06:39:41.347Z,37
2022-11-18T06:40:57.600Z,49
2022-11-18T06:42:12.844Z,55
2022-11-18T06:43:29.082Z,64
2022-11-18T06:44:45.333Z,67
2022-11-18T06:46:01.562Z,68
2022-11-18T06:47:17.815Z,78
2022-11-18T06:48:34.051Z,75
2022-11-18T06:49:50.285Z,85
2022-11-18T06:52:22.765Z,86
2022-11-18T06:53:39.017Z,87
2022-11-18T06:54:55.257Z,90
2022-11-18T06:56:11.496Z,96
2022-11-18T06:57:27.740Z,103
2022-11-18T06:58:42.993Z,100
2022-11-18T07:01:15.477Z,109
2022-11-18T07:02:31.717Z,106
2022-11-18T07:03:47.000Z,109
2022-11-18T07:05:04.191Z,123
2022-11-18T07:06:20.442Z,161
2022-11-18T07:07:36.689Z,140
2022-11-18T07:08:52.913Z,134
2022-11-18T07:10:09.168Z,153
2022-11-18T07:11:25.408Z,195
2022-11-18T07:12:41.636Z,189
2022-11-18T07:13:57.894Z,204
2022-11-18T07:15:13.145Z,186
2022-11-18T07:16:29.390Z,283
2022-11-18T07:17:45.623Z,218
2022-11-18T07:19:00.894Z,309
2022-11-18T07:20:16.149Z,302
2022-11-18T07:21:32.378Z,315
2022-11-18T07:24:04.872Z,297
2022-11-18T07:25:21.096Z,280
2022-11-18T07:26:37.341Z,264
2022-11-18T07:27:53.588Z,285
2022-11-18T07:29:09.822Z,290
2022-11-18T07:31:42.303Z,346
2022-11-18T07:32:58.544Z,336
2022-11-18T07:34:14.798Z,350
2022-11-18T07:36:46.289Z,343
2022-11-18T07:39:17.794Z,353
2022-11-18T07:40:33.066Z,325
2022-11-18T07:41:48.306Z,358
2022-11-18T07:43:04.546Z,350
2022-11-18T07:44:20.802Z,366
2022-11-18T07:45:37.033Z,363
2022-11-18T07:46:53.269Z,347
2022-11-18T07:48:09.516Z,383
2022-11-18T07:49:25.761Z,422
2022-11-18T07:50:42.002Z,385
2022-11-18T07:51:58.248Z,399
2022-11-18T07:53:14.486Z,435
2022-11-18T07:54:29.000Z,418
2022-11-18T07:55:45.011Z,492
2022-11-18T07:57:01.247Z,477
2022-11-18T07:58:17.493Z,495
2022-11-18T07:59:33.723Z,517
2022-11-18T08:00:49.968Z,479
2022-11-18T08:02:06.208Z,560
2022-11-18T08:03:22.447Z,511
2022-11-18T08:04:38.697Z,542
2022-11-18T08:05:54.935Z,456
2022-11-18T08:07:11.170Z,489
2022-11-18T08:08:27.554Z,538
2022-11-18T08:09:42.813Z,551
2022-11-18T08:10:59.046Z,461
2022-11-18T08:12:15.303Z,688
2022-11-18T08:13:31.535Z,693
2022-11-18T08:14:47.774Z,535
2022-11-18T08:17:20.249Z,626
2022-11-18T08:18:36.502Z,522
2022-11-18T08:19:52.744Z,471
2022-11-18T08:21:08.968Z,496
2022-11-18T08:24:57.698Z,426
2022-11-18T08:26:12.963Z,389
2022-11-18T08:27:28.212Z,447
2022-11-18T08:30:00.701Z,421
2022-11-18T08:31:16.946Z,402
2022-11-18T08:32:33.181Z,415
2022-11-18T08:33:49.425Z,423
2022-11-18T08:35:05.658Z,413
2022-11-18T08:36:21.903Z,440
2022-11-18T08:37:38.153Z,431
2022-11-18T08:38:54.383Z,499
2022-11-18T08:40:10.641Z,544
2022-11-18T08:41:26.863Z,596
2022-11-18T08:42:43.110Z,580
2022-11-18T08:43:58.360Z,562
2022-11-18T08:45:14.606Z,520
2022-11-18T08:46:30.854Z,515
2022-11-18T08:47:47.094Z,511
2022-11-18T08:49:03.336Z,616
2022-11-18T08:50:19.565Z,573
2022-11-18T08:51:35.809Z,621
2022-11-18T08:52:52.063Z,658
2022-11-18T08:55:23.545Z,671
2022-11-18T08:56:38.810Z,642
2022-11-18T08:57:54.078Z,772
2022-11-18T08:59:10.307Z,690
2022-11-18T09:00:26.566Z,611
2022-11-18T09:01:42.801Z,666
2022-11-18T09:02:59.043Z,569
2022-11-18T09:04:15.286Z,682
2022-11-18T09:05:31.511Z,593
2022-11-18T09:06:47.758Z,611
2022-11-18T09:08:04.001Z,610
2022-11-18T09:09:20.251Z,607
2022-11-18T09:10:35.502Z,613
2022-11-18T09:11:51.739Z,548
2022-11-18T09:13:07.989Z,563
2022-11-18T09:14:24.231Z,546
2022-11-18T09:15:40.462Z,623
2022-11-18T09:16:56.714Z,559
2022-11-18T09:18:12.958Z,545
2022-11-18T09:20:45.440Z,523
2022-11-18T09:22:01.675Z,501
2022-11-18T09:23:17.904Z,592
2022-11-18T09:25:50.393Z,889
2022-11-18T09:27:05.657Z,863
2022-11-18T09:28:21.889Z,907
2022-11-18T09:29:38.125Z,900
2022-11-18T09:30:54.376Z,968
2022-11-18T09:32:10.618Z,889
2022-11-18T09:33:26.865Z,761
2022-11-18T09:34:43.105Z,657
2022-11-18T09:35:59.341Z,754
2022-11-18T09:37:15.568Z,737
2022-11-18T09:38:31.830Z,724
2022-11-18T09:41:04.299Z,824
2022-11-18T09:42:19.561Z,808
2022-11-18T09:43:35.795Z,794
2022-11-18T09:44:51.067Z,702
2022-11-18T09:46:07.297Z,817
2022-11-18T09:48:39.792Z,743
2022-11-18T09:49:56.033Z,827
2022-11-18T09:51:12.253Z,964
2022-11-18T09:52:28.499Z,949
2022-11-18T09:53:44.745Z,970
2022-11-18T09:55:00.978Z,775
2022-11-18T09:56:17.225Z,670
2022-11-18T09:57:33.463Z,555
2022-11-18T09:58:49.713Z,516
2022-11-18T10:00:05.957Z,544
2022-11-18T10:01:21.204Z,647
2022-11-18T10:03:53.698Z,882
2022-11-18T10:05:08.961Z,1004
2022-11-18T10:06:25.189Z,868
2022-11-18T10:07:40.455Z,789
2022-11-18T10:08:56.685Z,724
2022-11-18T10:10:12.926Z,638
2022-11-18T10:11:29.169Z,545
2022-11-18T10:12:45.403Z,797
2022-11-18T10:14:01.662Z,955
2022-11-18T10:15:17.886Z,1137
2022-11-18T10:16:34.124Z,1205
2022-11-18T10:17:50.370Z,1233
2022-11-18T10:19:05.634Z,1014
2022-11-18T10:20:20.894Z,822
2022-11-18T10:21:37.138Z,851
2022-11-18T10:22:53.374Z,1022
2022-11-18T10:24:09.627Z,1062
2022-11-18T10:25:25.854Z,1157
2022-11-18T10:26:42.100Z,1352
2022-11-18T10:27:58.335Z,1259
2022-11-18T10:29:14.579Z,1147
2022-11-18T10:30:30.812Z,977
2022-11-18T10:31:47.067Z,896
2022-11-18T10:33:02.322Z,978
2022-11-18T10:34:17.589Z,1012
2022-11-18T10:35:33.826Z,1038
2022-11-18T10:36:50.064Z,1135
2022-11-18T10:38:06.294Z,1261
2022-11-18T10:39:22.551Z,1419
2022-11-18T10:40:38.796Z,1625
2022-11-18T10:41:55.016Z,1688
2022-11-18T10:43:11.275Z,1753
2022-11-18T10:44:27.517Z,1608
2022-11-18T10:45:43.739Z,1373
2022-11-18T10:46:59.982Z,1307
2022-11-18T10:48:16.236Z,1218
2022-11-18T10:49:32.479Z,1115
2022-11-18T10:50:47.729Z,968
2022-11-18T10:52:03.978Z,972
2022-11-18T10:53:20.209Z,849
2022-11-18T10:54:36.450Z,940
2022-11-18T10:57:08.930Z,907
2022-11-18T10:58:25.169Z,836
2022-11-18T10:59:41.409Z,844
2022-11-18T11:00:57.663Z,790
2022-11-18T11:02:13.906Z,677
2022-11-18T11:03:30.146Z,689
2022-11-18T11:04:46.380Z,686
2022-11-18T11:06:02.624Z,649
2022-11-18T11:07:17.884Z,652
2022-11-18T11:08:34.118Z,620
2022-11-18T11:12:22.842Z,801
2022-11-18T11:13:38.100Z,919
2022-11-18T11:14:53.359Z,1364
2022-11-18T11:16:09.601Z,1096
2022-11-18T11:17:25.841Z,1093
2022-11-18T11:19:58.322Z,908
2022-11-18T11:21:14.566Z,1400
2022-11-18T11:22:30.802Z,1315
2022-11-18T11:23:47.041Z,1376
2022-11-18T11:25:03.289Z,1935
2022-11-18T11:26:19.530Z,1128
2022-11-18T11:27:35.775Z,1800
2022-11-18T11:28:52.012Z,1351
2022-11-18T11:30:08.254Z,1435
2022-11-18T11:31:23.508Z,1371
2022-11-18T11:32:39.749Z,1937
2022-11-18T11:35:12.221Z,1524
2022-11-18T11:36:27.503Z,1640
2022-11-18T11:37:42.740Z,1824
2022-11-18T11:38:58.987Z,1486
2022-11-18T11:40:15.222Z,1152
2022-11-18T11:41:31.468Z,1338
2022-11-18T11:42:47.713Z,1450
2022-11-18T11:44:03.948Z,1272
2022-11-18T11:45:20.200Z,1489
2022-11-18T11:46:36.440Z,1109
2022-11-18T11:47:52.684Z,856
2022-11-18T11:49:08.925Z,769
2022-11-18T11:50:24.179Z,678
2022-11-18T11:51:39.443Z,1007
2022-11-18T11:52:55.669Z,1067
2022-11-18T11:54:11.923Z,1100
2022-11-18T11:55:28.159Z,1094
2022-11-18T11:56:44.410Z,1504
2022-11-18T11:58:00.642Z,1705
2022-11-18T11:59:16.887Z,2075
2022-11-18T12:00:33.129Z,2056
2022-11-18T12:01:49.374Z,1975
2022-11-18T12:03:05.611Z,2015
2022-11-18T12:04:21.985Z,1338
2022-11-18T12:05:37.249Z,1796
2022-11-18T12:06:53.493Z,1263
2022-11-18T12:08:09.718Z,1104
2022-11-18T12:09:25.962Z,1251
2022-11-18T12:10:42.215Z,1686
2022-11-18T12:11:58.447Z,1209
2022-11-18T12:13:14.680Z,1258
2022-11-18T12:14:30.933Z,1256
2022-11-18T12:15:47.180Z,1273
2022-11-18T12:17:03.415Z,1239
2022-11-18T12:18:19.651Z,1465
2022-11-18T12:19:35.904Z,1597
2022-11-18T12:20:52.134Z,1690
2022-11-18T12:22:07.387Z,1806
2022-11-18T12:23:23.636Z,1906
2022-11-18T12:24:39.881Z,1909
2022-11-18T12:25:56.123Z,1978
2022-11-18T12:28:28.606Z,2317
2022-11-18T12:29:44.830Z,2386
2022-11-18T12:31:01.083Z,2104
2022-11-18T12:33:33.571Z,2155
2022-11-18T12:34:49.802Z,2033
2022-11-18T12:36:06.036Z,1983
2022-11-18T12:37:22.273Z,1582
2022-11-18T12:38:37.544Z,689
2022-11-18T12:39:53.785Z,2278
2022-11-18T12:41:10.016Z,2261
2022-11-18T12:42:26.263Z,2221
2022-11-18T12:43:42.513Z,1703
2022-11-18T12:44:58.743Z,1010
2022-11-18T12:46:14.989Z,1159
2022-11-18T12:47:31.224Z,521
2022-11-18T12:48:47.478Z,1185
2022-11-18T12:51:19.950Z,786
2022-11-18T12:52:35.218Z,760
2022-11-18T12:53:50.477Z,840
2022-11-18T12:55:06.701Z,608
2022-11-18T12:56:22.949Z,724
2022-11-18T12:58:55.436Z,914
2022-11-18T13:00:11.679Z,880
2022-11-18T13:01:27.925Z,846
2022-11-18T13:02:44.150Z,550
2022-11-18T13:04:00.396Z,799
2022-11-18T13:05:16.641Z,939
2022-11-18T13:06:32.874Z,965
2022-11-18T13:07:49.121Z,892
2022-11-18T13:09:05.356Z,941
2022-11-18T13:10:20.623Z,1236
2022-11-18T13:11:36.863Z,1075
2022-11-18T13:12:53.100Z,800
2022-11-18T13:14:09.349Z,639
2022-11-18T13:15:25.590Z,616
2022-11-18T13:16:41.819Z,519
2022-11-18T13:17:58.064Z,706
2022-11-18T13:19:14.307Z,1214
2022-11-18T13:20:29.574Z,1125
2022-11-18T13:21:45.938Z,1040
2022-11-18T13:23:02.173Z,785
2022-11-18T13:24:18.406Z,1088
2022-11-18T13:25:34.785Z,1071
2022-11-18T13:26:51.016Z,769
2022-11-18T13:29:23.513Z,426
2022-11-18T13:30:39.751Z,783
2022-11-18T13:31:55.978Z,752
2022-11-18T13:33:12.227Z,552
2022-11-18T13:34:28.473Z,484
2022-11-18T13:35:44.706Z,637
2022-11-18T13:37:00.958Z,513
2022-11-18T13:38:17.180Z,476
2022-11-18T13:39:33.423Z,479
2022-11-18T13:40:49.681Z,584
2022-11-18T13:42:04.936Z,526
2022-11-18T13:43:21.167Z,502
2022-11-18T13:44:37.412Z,506
2022-11-18T13:45:53.653Z,490
2022-11-18T13:47:09.898Z,614
2022-11-18T13:48:26.143Z,764
2022-11-18T13:49:42.378Z,679
2022-11-18T13:50:58.617Z,870
2022-11-18T13:52:14.864Z,878
2022-11-18T13:53:31.093Z,784
2022-11-18T13:54:47.330Z,737
2022-11-18T13:56:03.590Z,543
2022-11-18T13:57:19.814Z,695
2022-11-18T13:59:51.315Z,685
2022-11-18T14:01:07.566Z,419
2022-11-18T14:02:23.796Z,366
2022-11-18T14:03:40.039Z,609
2022-11-18T14:04:56.276Z,952
2022-11-18T14:06:12.526Z,877
2022-11-18T14:07:28.769Z,618
2022-11-18T14:08:45.012Z,597
2022-11-18T14:10:01.245Z,335
2022-11-18T14:11:17.483Z,506
2022-11-18T14:12:33.721Z,586
2022-11-18T14:15:06.206Z,722
2022-11-18T14:16:21.465Z,675
2022-11-18T14:17:37.719Z,462
2022-11-18T14:18:53.945Z,586
2022-11-18T14:20:10.183Z,561
2022-11-18T14:21:26.426Z,535
2022-11-18T14:22:42.682Z,332
2022-11-18T14:23:58.920Z,484
2022-11-18T14:25:15.155Z,376
2022-11-18T14:26:31.397Z,355
2022-11-18T14:27:47.638Z,327
2022-11-18T14:29:03.868Z,380
2022-11-18T14:30:20.112Z,335
2022-11-18T14:31:36.353Z,285
2022-11-18T14:32:51.611Z,245
2022-11-18T14:34:07.852Z,286
2022-11-18T14:35:24.095Z,243
2022-11-18T14:36:40.341Z,369
2022-11-18T14:37:56.572Z,358
2022-11-18T14:39:12.828Z,309
2022-11-18T14:40:29.064Z,196
2022-11-18T14:41:45.309Z,267
2022-11-18T14:43:01.541Z,315
2022-11-18T14:45:34.035Z,261
2022-11-18T14:46:50.272Z,343
2022-11-18T14:48:06.517Z,250
2022-11-18T14:49:22.872Z,269
2022-11-18T14:50:39.109Z,209
2022-11-18T14:51:55.349Z,168
2022-11-18T14:53:11.599Z,141
2022-11-18T14:54:27.842Z,163
2022-11-18T14:55:44.067Z,155
2022-11-18T14:57:00.326Z,133
2022-11-18T14:58:16.561Z,159
2022-11-18T15:00:49.046Z,152
2022-11-18T15:02:05.273Z,145
2022-11-18T15:03:21.528Z,126
2022-11-18T15:04:37.764Z,106
2022-11-18T15:05:53.012Z,87
2022-11-18T15:07:09.263Z,73
2022-11-18T15:08:25.500Z,67
2022-11-18T15:09:41.734Z,59
2022-11-18T15:10:57.994Z,51
2022-11-18T15:12:14.218Z,48
2022-11-18T15:13:30.459Z,47
2022-11-18T15:14:46.699Z,44
2022-11-18T15:16:02.948Z,43
2022-11-18T15:17:19.197Z,42
2022-11-18T15:18:35.431Z,42
2022-11-18T15:19:51.666Z,49
2022-11-18T15:21:07.923Z,46
2022-11-18T15:22:24.163Z,42
2022-11-18T15:23:39.418Z,39
2022-11-18T15:24:55.651Z,28
2022-11-18T15:26:11.898Z,29
2022-11-18T15:27:28.143Z,24
2022-11-18T15:28:44.383Z,22
2022-11-18T15:30:00.618Z,21
2022-11-18T15:31:16.857Z,12
2022-11-18T15:32:33.097Z,13
2022-11-18T15:33:49.350Z,9
2022-11-18T15:35:05.572Z,9
2022-11-18T15:36:21.827Z,11
2022-11-18T15:37:38.074Z,9
2022-11-18T15:38:54.294Z,9
2022-11-18T15:40:09.555Z,4
2022-11-18T15:41:25.810Z,5
2022-11-18T15:42:42.033Z,3
2022-11-18T15:43:58.287Z,2
2022-11-18T15:45:14.532Z,2
2022-11-18T15:46:30.767Z,2
2022-11-18T15:47:47.011Z,1
2022-11-18T15:49:03.248Z,1
2022-11-18T15:50:19.537Z,0
2022-11-18T15:51:35.850Z,0
2022-11-18T15:52:52.103Z,0
2022-11-18T15:54:08.401Z,0
2022-11-18T15:55:24.686Z,0
2022-11-18T15:56:40.009Z,0
2022-11-18T15:57:56.301Z,0
2022-11-18T15:59:12.597Z,0
2022-11-18T16:01:45.187Z,0
2022-11-18T16:03:01.478Z,0
2022-11-18T16:04:17.770Z,0
2022-11-18T16:05:34.063Z,0
2022-11-18T16:06:50.368Z,0
2022-11-18T16:08:06.651Z,0
2022-11-18T16:09:22.964Z,0
2022-11-18T16:10:39.257Z,0
2022-11-18T16:11:55.543Z,0
2022-11-18T16:13:11.847Z,0
2022-11-18T16:14:27.152Z,0
2022-11-18T16:15:43.442Z,0
2022-11-18T16:16:59.736Z,0
2022-11-18T16:18:16.033Z,0
2022-11-18T16:19:32.331Z,0
2022-11-18T16:20:48.622Z,0
2022-11-18T16:22:04.931Z,0
2022-11-18T16:23:21.227Z,0
2022-11-18T16:25:53.802Z,0
2022-11-18T16:27:10.102Z,0
2022-11-18T16:28:26.395Z,0
2022-11-18T16:29:42.687Z,0
2022-11-18T16:30:58.009Z,0
2022-11-18T16:32:14.297Z,0
2022-11-18T16:33:30.597Z,0
2022-11-18T16:34:46.890Z,0
2022-11-18T16:36:03.176Z,0
2022-11-18T16:37:19.481Z,0
2022-11-18T16:38:35.771Z,0
2022-11-18T16:39:52.080Z,0
2022-11-18T16:41:08.369Z,0
2022-11-18T16:42:24.666Z,0
2022-11-18T16:43:40.949Z,0
2022-11-18T16:44:57.251Z,0
2022-11-18T16:46:13.545Z,0
2022-11-18T16:47:28.854Z,0
2022-11-18T16:48:45.159Z,0
2022-11-18T16:50:01.439Z,0
2022-11-18T16:51:17.731Z,0
2022-11-18T16:52:34.030Z,0
2022-11-18T16:53:50.323Z,0
2022-11-18T16:55:06.628Z,0
2022-11-18T16:56:22.929Z,0
2022-11-18T16:57:39.225Z,0
2022-11-18T16:58:55.512Z,0
2022-11-18T17:00:11.809Z,0
2022-11-18T17:01:28.102Z,0
2022-11-18T17:02:44.391Z,0
2022-11-18T17:03:59.699Z,0
2022-11-18T17:05:16.008Z,0
2022-11-18T17:06:32.301Z,0
2022-11-18T17:07:48.598Z,0
2022-11-18T17:09:04.892Z,0
2022-11-18T17:10:21.173Z,0
2022-11-18T17:11:37.484Z,0
2022-11-18T17:12:53.772Z,0
2022-11-18T17:14:10.073Z,0
2022-11-18T17:15:26.370Z,0
2022-11-18T17:16:42.664Z,0
2022-11-18T17:17:58.959Z,0
2022-11-18T17:19:15.238Z,0
2022-11-18T17:20:30.568Z,0
2022-11-18T17:21:46.865Z,0
2022-11-18T17:23:03.148Z,0
2022-11-18T17:24:19.441Z,0
2022-11-18T17:25:35.743Z,0
2022-11-18T17:26:52.035Z,0
2022-11-18T17:28:08.337Z,0
2022-11-18T17:29:24.622Z,0
2022-11-18T17:30:40.911Z,0
2022-11-18T17:31:57.222Z,0
2022-11-18T17:33:13.504Z,0
2022-11-18T17:34:29.803Z,0
2022-11-18T17:35:46.105Z,0
2022-11-18T17:37:01.422Z,0
2022-11-18T17:38:17.700Z,0
2022-11-18T17:39:34.000Z,0
2022-11-18T17:40:49.318Z,0
2022-11-18T17:42:05.603Z,0
2022-11-18T17:43:21.916Z,0
2022-11-18T17:44:38.199Z,0
2022-11-18T17:45:54.501Z,0
2022-11-18T17:48:27.083Z,0
2022-11-18T17:49:43.374Z,0
2022-11-18T17:50:59.682Z,0
2022-11-18T17:52:15.965Z,0
2022-11-18T17:53:32.263Z,0
2022-11-18T17:54:48.569Z,0
2022-11-18T17:56:04.850Z,0
2022-11-18T17:57:20.159Z,0
2022-11-18T17:59:52.762Z,0
2022-11-18T18:01:09.057Z,0
2022-11-18T18:03:41.634Z,0
2022-11-18T18:04:58.075Z,0
2022-11-18T18:06:13.383Z,0
2022-11-18T18:07:29.690Z,0
2022-11-18T18:08:45.978Z,0
2022-11-18T18:10:02.280Z,0
2022-11-18T18:11:18.569Z,0
2022-11-18T18:12:34.869Z,0
2022-11-18T18:13:51.155Z,0
2022-11-18T18:15:07.000Z,0
2022-11-18T18:16:23.746Z,0
2022-11-18T18:17:40.052Z,0
2022-11-18T18:18:55.355Z,0
2022-11-18T18:20:11.657Z,0
2022-11-18T18:21:26.978Z,0
2022-11-18T18:22:43.259Z,0
2022-11-18T18:23:59.566Z,0
2022-11-18T18:25:15.860Z,0
2022-11-18T18:26:32.145Z,0
2022-11-18T18:27:48.438Z,0
2022-11-18T18:29:04.740Z,0
2022-11-18T18:30:21.036Z,0
2022-11-18T18:31:37.326Z,0
2022-11-18T18:32:53.636Z,0
2022-11-18T18:34:09.917Z,0
2022-11-18T18:35:26.229Z,0
2022-11-18T18:36:42.508Z,0
2022-11-18T18:37:57.830Z,0
2022-11-18T18:39:14.129Z,0
2022-11-18T18:40:30.419Z,0
2022-11-18T18:41:46.716Z,0
2022-11-18T18:43:02.998Z,0
2022-11-18T18:44:19.295Z,0
2022-11-18T18:45:35.600Z,0
2022-11-18T18:46:51.892Z,0
2022-11-18T18:48:08.181Z,0
2022-11-18T18:49:24.486Z,0
2022-11-18T18:50:40.767Z,0
2022-11-18T18:51:57.078Z,0
2022-11-18T18:53:13.359Z,0
2022-11-18T18:54:28.672Z,0
2022-11-18T18:57:01.258Z,0
2022-11-18T18:58:17.563Z,0
2022-11-18T18:59:33.861Z,0
2022-11-18T19:00:50.150Z,0
2022-11-18T19:02:06.439Z,0
2022-11-18T19:03:22.744Z,0
2022-11-18T19:04:39.038Z,0
2022-11-18T19:05:55.335Z,0
2022-11-18T19:07:11.622Z,0
2022-11-18T19:08:27.930Z,0
2022-11-18T19:09:44.208Z,0
2022-11-18T19:11:00.507Z,0
2022-11-18T19:12:15.814Z,0
2022-11-18T19:13:32.119Z,0
2022-11-18T19:14:48.413Z,0